createdAt,value
2022-10-31T00:01:32.073Z,17.80
2022-10-31T00:04:00.063Z,15.83
2022-10-31T00:06:27.780Z,16.67
2022-10-31T00:08:57.952Z,15.33
2022-10-31T00:11:25.773Z,15.70
2022-10-31T00:13:53.322Z,15.47
2022-10-31T00:16:25.619Z,14.90
2022-10-31T00:18:55.510Z,14.90
2022-10-31T00:21:23.297Z,14.10
2022-10-31T00:23:50.788Z,14.10
2022-10-31T00:26:18.643Z,14.37
2022-10-31T00:28:46.137Z,13.37
2022-10-31T00:31:14.860Z,14.77
2022-10-31T00:33:43.234Z,14.47
2022-10-31T00:36:16.361Z,14.43
2022-10-31T00:38:44.697Z,13.33
2022-10-31T00:41:13.423Z,13.83
2022-10-31T00:43:42.844Z,14.90
2022-10-31T00:46:11.170Z,14.00
2022-10-31T00:48:38.628Z,14.57
2022-10-31T00:51:06.661Z,14.73
2022-10-31T00:53:34.235Z,14.43
2022-10-31T00:56:02.238Z,13.70
2022-10-31T00:58:29.889Z,14.00
2022-10-31T01:00:58.168Z,14.57
2022-10-31T01:03:32.046Z,15.57
2022-10-31T01:06:05.909Z,13.23
2022-10-31T01:08:35.074Z,12.60
2022-10-31T01:11:04.545Z,13.63
2022-10-31T01:13:33.908Z,14.53
2022-10-31T01:16:04.047Z,12.37
2022-10-31T01:18:33.528Z,13.40
2022-10-31T01:21:08.411Z,11.87
2022-10-31T01:23:35.950Z,12.97
2022-10-31T01:26:15.152Z,11.27
2022-10-31T01:28:52.893Z,10.47
2022-10-31T01:31:23.110Z,10.83
2022-10-31T01:33:50.582Z,9.90
2022-10-31T01:36:21.125Z,9.90
2022-10-31T01:38:53.057Z,10.33
2022-10-31T01:41:27.044Z,10.50
2022-10-31T01:44:00.806Z,10.20
2022-10-31T01:46:36.634Z,9.90
2022-10-31T01:49:10.383Z,8.93
2022-10-31T01:51:42.254Z,9.60
2022-10-31T01:54:15.195Z,9.10
2022-10-31T01:56:47.098Z,8.63
2022-10-31T01:59:18.803Z,8.80
2022-10-31T02:01:50.342Z,8.97
2022-10-31T02:04:19.645Z,8.23
2022-10-31T02:06:56.780Z,7.83
2022-10-31T02:09:24.907Z,7.97
2022-10-31T02:11:58.678Z,7.60
2022-10-31T02:14:29.013Z,8.33
2022-10-31T02:16:56.529Z,8.57
2022-10-31T02:19:57.862Z,7.50
2022-10-31T02:23:29.318Z,8.23
2022-10-31T02:26:12.121Z,7.40
2022-10-31T02:28:48.435Z,7.33
2022-10-31T02:31:36.207Z,6.53
2022-10-31T02:34:27.719Z,6.20
2022-10-31T02:37:05.178Z,6.50
2022-10-31T02:39:41.958Z,6.37
2022-10-31T02:42:22.140Z,6.50
2022-10-31T02:45:03.948Z,6.23
2022-10-31T02:47:38.942Z,6.17
2022-10-31T02:50:32.001Z,6.37
2022-10-31T02:53:07.166Z,6.20
2022-10-31T02:55:35.110Z,6.00
2022-10-31T02:58:17.033Z,6.40
2022-10-31T03:01:12.814Z,5.90
2022-10-31T03:04:08.554Z,5.43
2022-10-31T03:07:10.615Z,5.67
2022-10-31T03:10:10.222Z,5.63
2022-10-31T03:12:49.099Z,5.73
2022-10-31T03:15:28.628Z,5.87
2022-10-31T03:18:09.601Z,5.33
2022-10-31T03:20:47.652Z,5.70
2022-10-31T03:23:18.634Z,5.40
2022-10-31T03:25:53.540Z,5.93
2022-10-31T03:28:31.416Z,5.53
2022-10-31T03:31:03.431Z,5.80
2022-10-31T03:33:38.025Z,5.37
2022-10-31T03:36:07.023Z,6.53
2022-10-31T03:38:36.667Z,5.23
2022-10-31T03:41:07.644Z,5.23
2022-10-31T03:43:41.971Z,4.90
2022-10-31T03:46:09.673Z,5.20
2022-10-31T03:48:37.152Z,5.13
2022-10-31T03:51:42.149Z,4.87
2022-10-31T03:54:31.464Z,4.70
2022-10-31T03:57:06.469Z,5.30
2022-10-31T03:59:38.883Z,4.90
2022-10-31T04:02:17.240Z,4.90
2022-10-31T04:04:46.561Z,5.13
2022-10-31T04:07:14.760Z,5.50
2022-10-31T04:09:45.874Z,5.53
2022-10-31T04:12:16.314Z,5.40
2022-10-31T04:14:51.588Z,5.07
2022-10-31T04:17:22.703Z,4.87
2022-10-31T04:19:50.130Z,4.83
2022-10-31T04:22:17.726Z,4.13
2022-10-31T04:24:45.096Z,4.53
2022-10-31T04:27:15.477Z,4.77
2022-10-31T04:29:45.526Z,4.57
2022-10-31T04:32:16.385Z,4.53
2022-10-31T04:34:43.829Z,4.40
2022-10-31T04:37:12.163Z,4.70
2022-10-31T04:39:39.833Z,4.40
2022-10-31T04:42:31.509Z,4.33
2022-10-31T04:45:01.075Z,4.50
2022-10-31T04:47:28.568Z,4.20
2022-10-31T04:49:56.398Z,4.77
2022-10-31T04:52:23.843Z,4.37
2022-10-31T04:54:51.668Z,4.20
2022-10-31T04:57:57.261Z,4.90
2022-10-31T05:00:26.564Z,4.37
2022-10-31T05:02:58.948Z,4.43
2022-10-31T05:05:32.205Z,4.80
2022-10-31T05:08:02.172Z,4.50
2022-10-31T05:10:31.964Z,4.47
2022-10-31T05:13:03.050Z,4.03
2022-10-31T05:15:50.603Z,4.10
2022-10-31T05:18:36.527Z,4.27
2022-10-31T05:21:12.732Z,4.33
2022-10-31T05:23:50.762Z,4.50
2022-10-31T05:26:18.773Z,4.70
2022-10-31T05:28:46.231Z,4.93
2022-10-31T05:31:13.772Z,5.07
2022-10-31T05:33:42.765Z,4.73
2022-10-31T05:36:48.562Z,5.20
2022-10-31T05:39:17.730Z,4.83
2022-10-31T05:41:48.939Z,5.47
2022-10-31T05:44:21.313Z,5.40
2022-10-31T05:46:55.845Z,5.40
2022-10-31T05:49:58.620Z,5.43
2022-10-31T05:52:43.762Z,4.90
2022-10-31T05:55:26.635Z,5.40
2022-10-31T05:58:14.318Z,5.00
2022-10-31T06:00:49.183Z,5.07
2022-10-31T06:03:17.011Z,4.80
2022-10-31T06:05:55.191Z,4.80
2022-10-31T06:08:26.313Z,4.50
2022-10-31T06:10:55.804Z,4.50
2022-10-31T06:13:43.124Z,4.80
2022-10-31T06:16:17.748Z,4.30
2022-10-31T06:18:47.129Z,4.70
2022-10-31T06:21:18.066Z,10.43
2022-10-31T06:23:47.335Z,13.77
2022-10-31T06:26:34.993Z,7.70
2022-10-31T06:29:04.266Z,8.03
2022-10-31T06:31:59.986Z,5.57
2022-10-31T06:34:27.488Z,5.20
2022-10-31T06:36:55.333Z,5.57
2022-10-31T06:39:25.827Z,4.40
2022-10-31T06:41:54.212Z,4.37
2022-10-31T06:44:23.055Z,4.40
2022-10-31T06:46:56.596Z,4.60
2022-10-31T06:49:42.257Z,3.80
2022-10-31T06:52:17.159Z,4.57
2022-10-31T06:54:44.763Z,4.70
2022-10-31T06:57:12.175Z,4.90
2022-10-31T06:59:41.482Z,5.33
2022-10-31T07:02:30.452Z,5.17
2022-10-31T07:05:01.447Z,4.30
2022-10-31T07:07:29.736Z,4.97
2022-10-31T07:09:57.193Z,4.90
2022-10-31T07:12:40.772Z,4.70
2022-10-31T07:15:10.632Z,5.10
2022-10-31T07:17:38.555Z,5.80
2022-10-31T07:20:06.745Z,4.70
2022-10-31T07:22:38.596Z,4.90
2022-10-31T07:25:10.295Z,4.90
2022-10-31T07:27:57.167Z,4.63
2022-10-31T07:30:24.825Z,5.17
2022-10-31T07:32:56.593Z,4.83
2022-10-31T07:35:28.994Z,5.40
2022-10-31T07:37:59.359Z,5.17
2022-10-31T07:40:27.558Z,5.10
2022-10-31T07:42:54.966Z,5.70
2022-10-31T07:45:53.105Z,5.47
2022-10-31T07:48:38.861Z,5.57
2022-10-31T07:51:25.144Z,6.67
2022-10-31T07:54:04.708Z,7.97
2022-10-31T07:56:33.165Z,6.10
2022-10-31T07:59:01.101Z,7.00
2022-10-31T08:01:28.532Z,8.33
2022-10-31T08:04:21.396Z,7.07
2022-10-31T08:07:09.004Z,6.83
2022-10-31T08:09:39.374Z,7.63
2022-10-31T08:12:20.659Z,6.83
2022-10-31T08:14:48.154Z,8.53
2022-10-31T08:17:18.468Z,8.50
2022-10-31T08:19:57.203Z,7.13
2022-10-31T08:22:33.945Z,9.60
2022-10-31T08:25:02.654Z,9.43
2022-10-31T08:27:33.850Z,7.60
2022-10-31T08:30:02.263Z,8.80
2022-10-31T08:32:29.759Z,11.13
2022-10-31T08:35:34.296Z,13.10
2022-10-31T08:38:36.641Z,12.23
2022-10-31T08:41:04.222Z,12.43
2022-10-31T08:43:32.771Z,12.17
2022-10-31T08:46:03.995Z,10.60
2022-10-31T08:48:33.488Z,12.23
2022-10-31T08:51:02.257Z,11.60
2022-10-31T08:53:33.004Z,10.83
2022-10-31T08:56:35.681Z,11.23
2022-10-31T08:59:07.154Z,11.93
2022-10-31T09:05:04.601Z,12.17
2022-10-31T09:07:32.069Z,10.77
2022-10-31T09:10:02.642Z,11.53
2022-10-31T09:12:33.699Z,11.40
2022-10-31T09:15:30.190Z,11.63
2022-10-31T09:18:22.693Z,11.10
2022-10-31T09:21:00.969Z,11.37
2022-10-31T09:23:31.216Z,9.90
2022-10-31T09:26:04.643Z,11.70
2022-10-31T09:28:38.258Z,10.13
2022-10-31T09:31:13.939Z,12.30
2022-10-31T09:33:55.612Z,11.90
2022-10-31T09:36:39.498Z,9.60
2022-10-31T09:39:14.453Z,11.87
2022-10-31T09:42:17.714Z,10.70
2022-10-31T09:45:04.945Z,13.17
2022-10-31T09:48:12.463Z,14.57
2022-10-31T09:51:17.799Z,13.30
2022-10-31T09:54:29.590Z,10.23
2022-10-31T09:56:58.819Z,11.03
2022-10-31T09:59:38.560Z,12.60
2022-10-31T10:02:18.034Z,11.30
2022-10-31T10:05:16.335Z,12.50
2022-10-31T10:08:10.320Z,11.00
2022-10-31T10:11:31.320Z,15.03
2022-10-31T10:14:19.309Z,15.17
2022-10-31T10:16:55.696Z,15.63
2022-10-31T10:19:44.708Z,14.33
2022-10-31T10:22:40.052Z,17.87
2022-10-31T10:25:22.502Z,16.40
2022-10-31T10:28:22.753Z,17.43
2022-10-31T10:30:52.005Z,19.70
2022-10-31T10:33:21.206Z,18.47
2022-10-31T10:35:50.914Z,19.47
2022-10-31T10:38:50.387Z,20.17
2022-10-31T10:41:23.441Z,19.63
2022-10-31T10:43:52.413Z,21.03
2022-10-31T10:46:49.431Z,21.50
2022-10-31T10:49:39.853Z,19.43
2022-10-31T10:55:29.229Z,17.70
2022-10-31T10:58:08.702Z,17.03
2022-10-31T11:00:51.065Z,20.80
2022-10-31T11:03:19.896Z,23.17
2022-10-31T11:05:54.890Z,20.87
2022-10-31T11:08:31.171Z,23.90
2022-10-31T11:11:18.527Z,19.73
2022-10-31T11:13:49.737Z,18.77
2022-10-31T11:16:43.177Z,19.03
2022-10-31T11:19:13.382Z,20.27
2022-10-31T11:21:40.811Z,20.73
2022-10-31T11:24:10.979Z,22.30
2022-10-31T11:26:40.347Z,20.57
2022-10-31T11:29:26.739Z,23.50
2022-10-31T11:31:56.950Z,23.10
2022-10-31T11:34:35.404Z,23.73
2022-10-31T11:37:17.991Z,21.70
2022-10-31T11:39:59.920Z,25.30
2022-10-31T11:42:30.733Z,22.67
2022-10-31T11:44:58.556Z,23.47
2022-10-31T11:47:33.556Z,22.97
2022-10-31T11:50:09.935Z,22.40
2022-10-31T11:52:40.753Z,23.90
2022-10-31T11:55:11.889Z,23.70
2022-10-31T11:57:47.873Z,23.87
2022-10-31T12:00:34.312Z,22.70
2022-10-31T12:03:17.005Z,22.50
2022-10-31T12:05:46.839Z,25.90
2022-10-31T12:08:14.876Z,25.10
2022-10-31T12:11:02.304Z,25.53
2022-10-31T12:14:18.407Z,26.23
2022-10-31T12:17:06.867Z,27.63
2022-10-31T12:20:00.426Z,27.00
2022-10-31T12:23:04.391Z,25.07
2022-10-31T12:25:44.141Z,32.53
2022-10-31T12:28:52.569Z,26.17
2022-10-31T12:31:44.144Z,26.33
2022-10-31T12:34:23.902Z,25.47
2022-10-31T12:36:56.911Z,26.03
2022-10-31T12:39:54.107Z,26.17
2022-10-31T12:42:55.334Z,28.20
2022-10-31T12:45:50.628Z,28.43
2022-10-31T12:48:20.832Z,28.10
2022-10-31T12:51:06.279Z,30.27
2022-10-31T12:53:51.844Z,28.73
2022-10-31T12:56:37.991Z,32.50
2022-10-31T12:59:22.553Z,33.40
2022-10-31T13:02:02.512Z,32.10
2022-10-31T13:04:51.076Z,29.33
2022-10-31T13:07:41.564Z,31.27
2022-10-31T13:10:19.762Z,31.10
2022-10-31T13:12:50.237Z,31.07
2022-10-31T13:15:27.780Z,31.13
2022-10-31T13:18:02.197Z,36.43
2022-10-31T13:20:42.811Z,33.23
2022-10-31T13:23:49.084Z,39.23
2022-10-31T13:26:19.842Z,41.63
2022-10-31T13:29:01.071Z,37.97
2022-10-31T13:31:28.844Z,40.07
2022-10-31T13:34:01.366Z,41.00
2022-10-31T13:36:56.697Z,42.33
2022-10-31T13:39:39.735Z,42.67
2022-10-31T13:42:39.857Z,45.40
2022-10-31T13:45:27.022Z,48.00
2022-10-31T13:48:22.242Z,45.50
2022-10-31T13:51:11.494Z,43.93
2022-10-31T13:53:58.077Z,43.40
2022-10-31T13:56:32.225Z,43.03
2022-10-31T13:59:12.174Z,46.00
2022-10-31T14:01:51.993Z,44.70
2022-10-31T14:04:26.456Z,44.70
2022-10-31T14:07:05.523Z,44.50
2022-10-31T14:09:40.229Z,45.33
2022-10-31T14:12:35.265Z,44.40
2022-10-31T14:15:18.019Z,48.37
2022-10-31T14:18:07.709Z,48.50
2022-10-31T14:20:43.724Z,48.30
2022-10-31T14:23:29.779Z,44.57
2022-10-31T14:26:27.210Z,47.97
2022-10-31T14:29:00.715Z,44.37
2022-10-31T14:31:28.146Z,43.07
2022-10-31T14:33:55.763Z,47.03
2022-10-31T14:36:57.098Z,46.13
2022-10-31T14:39:42.900Z,45.90
2022-10-31T14:42:22.210Z,47.53
2022-10-31T14:44:52.605Z,42.53
2022-10-31T14:47:37.904Z,49.03
2022-10-31T14:50:18.222Z,48.80
2022-10-31T14:52:50.689Z,47.80
2022-10-31T14:55:19.688Z,47.60
2022-10-31T14:58:03.054Z,45.67
2022-10-31T15:00:32.276Z,49.57
2022-10-31T15:03:26.089Z,44.47
2022-10-31T15:05:57.053Z,43.23
2022-10-31T15:09:01.619Z,42.37
2022-10-31T15:11:29.040Z,44.07
2022-10-31T15:13:58.680Z,43.40
2022-10-31T15:16:35.836Z,44.70
2022-10-31T15:19:08.914Z,45.40
2022-10-31T15:21:48.396Z,50.33
2022-10-31T15:24:19.692Z,48.30
2022-10-31T15:26:49.835Z,45.73
2022-10-31T15:29:23.643Z,48.43
2022-10-31T15:31:58.125Z,40.70
2022-10-31T15:34:29.167Z,39.93
2022-10-31T15:36:56.700Z,42.87
2022-10-31T15:39:24.174Z,43.13
2022-10-31T15:41:55.135Z,40.80
2022-10-31T15:44:33.292Z,43.67
2022-10-31T15:47:04.468Z,48.40
2022-10-31T15:49:47.425Z,52.30
2022-10-31T15:52:34.889Z,53.47
2022-10-31T15:55:04.663Z,53.53
2022-10-31T15:57:33.582Z,55.80
2022-10-31T16:00:01.596Z,51.20
2022-10-31T16:02:29.574Z,50.60
2022-10-31T16:05:01.623Z,53.67
2022-10-31T16:07:30.341Z,51.20
2022-10-31T16:10:02.825Z,51.77
2022-10-31T16:12:43.212Z,55.20
2022-10-31T16:15:17.978Z,54.47
2022-10-31T16:17:48.125Z,55.40
2022-10-31T16:20:38.951Z,52.27
2022-10-31T16:23:06.466Z,57.27
2022-10-31T16:25:39.290Z,58.13
2022-10-31T16:28:24.489Z,59.67
2022-10-31T16:30:56.809Z,60.67
2022-10-31T16:33:37.260Z,52.50
2022-10-31T16:36:35.968Z,50.67
2022-10-31T16:39:04.327Z,45.47
2022-10-31T16:41:35.668Z,36.10
2022-10-31T16:44:04.998Z,36.47
2022-10-31T16:46:32.613Z,33.17
2022-10-31T16:49:00.049Z,35.97
2022-10-31T16:51:27.446Z,38.03
2022-10-31T16:53:55.900Z,38.43
2022-10-31T16:56:29.394Z,35.30
2022-10-31T16:58:57.486Z,37.20
2022-10-31T17:01:25.116Z,36.53
2022-10-31T17:04:18.381Z,34.77
2022-10-31T17:06:46.322Z,31.17
2022-10-31T17:09:24.639Z,31.77
2022-10-31T17:11:58.446Z,33.17
2022-10-31T17:14:26.494Z,38.50
2022-10-31T17:17:05.314Z,33.17
2022-10-31T17:19:37.491Z,36.43
2022-10-31T17:22:08.316Z,35.87
2022-10-31T17:24:39.907Z,34.07
2022-10-31T17:27:10.084Z,29.90
2022-10-31T17:29:39.901Z,29.50
2022-10-31T17:34:53.444Z,24.20
2022-10-31T17:37:22.469Z,25.27
2022-10-31T17:42:33.737Z,27.30
2022-10-31T17:45:04.511Z,24.17
2022-10-31T17:47:44.644Z,28.67
2022-10-31T17:50:14.828Z,23.63
2022-10-31T17:52:48.342Z,23.00
2022-10-31T17:55:17.077Z,24.50
2022-10-31T18:00:38.442Z,23.63
2022-10-31T18:05:58.479Z,24.90
2022-10-31T18:11:36.685Z,23.37
2022-10-31T18:14:08.818Z,21.10
2022-10-31T18:16:41.355Z,20.20
2022-10-31T18:19:13.894Z,21.50
2022-10-31T18:21:49.286Z,26.17
2022-10-31T18:27:04.726Z,22.60
2022-10-31T18:32:15.551Z,22.73
2022-10-31T18:34:46.995Z,21.17
2022-10-31T18:39:53.151Z,26.30
2022-10-31T18:42:24.275Z,21.47
2022-10-31T18:44:55.367Z,20.87
2022-10-31T18:48:31.603Z,20.63
2022-10-31T18:52:36.808Z,19.37
2022-10-31T18:55:07.848Z,19.90
2022-10-31T19:00:23.702Z,14.83
2022-10-31T19:02:56.613Z,14.97
2022-10-31T19:05:26.920Z,12.87
2022-10-31T19:07:56.867Z,15.67
2022-10-31T19:10:30.573Z,12.10
2022-10-31T19:13:01.799Z,12.30
2022-10-31T19:15:42.975Z,12.57
2022-10-31T19:18:15.205Z,11.67
2022-10-31T19:20:46.162Z,12.27
2022-10-31T19:23:18.470Z,13.53
2022-10-31T19:28:33.433Z,12.27
2022-10-31T19:31:03.436Z,13.07
2022-10-31T19:33:35.157Z,12.27
2022-10-31T19:36:28.607Z,10.93
2022-10-31T19:39:12.095Z,12.30
2022-10-31T19:41:42.022Z,11.33
2022-10-31T19:46:54.468Z,10.17
2022-10-31T19:49:33.598Z,11.43
2022-10-31T19:52:10.159Z,10.77
2022-10-31T19:54:40.201Z,10.57
2022-10-31T19:57:10.755Z,12.23
2022-10-31T19:59:41.636Z,12.93
2022-10-31T20:02:21.629Z,12.27
2022-10-31T20:04:49.981Z,13.23
2022-10-31T20:07:21.738Z,12.10
2022-10-31T20:09:56.664Z,12.67
2022-10-31T20:12:28.047Z,12.17
2022-10-31T20:14:57.676Z,12.73
2022-10-31T20:17:30.155Z,13.37
2022-10-31T20:20:02.329Z,13.00
2022-10-31T20:25:16.633Z,14.37
2022-10-31T20:27:46.193Z,13.80
2022-10-31T20:30:16.076Z,13.47
2022-10-31T20:32:49.791Z,14.00
2022-10-31T20:35:29.008Z,14.03
2022-10-31T20:37:57.486Z,14.27
2022-10-31T20:40:27.721Z,13.57
2022-10-31T20:43:06.895Z,14.03
2022-10-31T20:45:44.611Z,14.60
2022-10-31T20:48:15.151Z,12.87
2022-10-31T20:50:43.559Z,13.37
2022-10-31T20:53:12.215Z,14.40
2022-10-31T20:55:43.507Z,13.63
2022-10-31T20:58:14.084Z,13.20
2022-10-31T21:00:41.521Z,15.00
2022-10-31T21:03:15.120Z,14.80
2022-10-31T21:05:43.640Z,14.40
2022-10-31T21:08:14.522Z,14.77
2022-10-31T21:10:43.445Z,16.93
2022-10-31T21:13:12.478Z,17.47
2022-10-31T21:15:42.922Z,17.23
2022-10-31T21:18:10.359Z,16.87
2022-10-31T21:20:48.210Z,18.87
2022-10-31T21:23:19.615Z,17.63
2022-10-31T21:25:56.347Z,17.63
2022-10-31T21:28:27.175Z,16.60
2022-10-31T21:30:55.056Z,17.43
2022-10-31T21:33:24.509Z,15.87
2022-10-31T21:35:52.090Z,16.17
2022-10-31T21:38:20.481Z,16.27
2022-10-31T21:40:50.022Z,14.77
2022-10-31T21:43:19.333Z,16.67
2022-10-31T21:45:56.324Z,16.53
2022-10-31T21:48:31.428Z,16.37
2022-10-31T21:51:04.261Z,15.03
2022-10-31T21:53:54.316Z,15.33
2022-10-31T21:56:25.333Z,13.97
2022-10-31T21:58:56.324Z,13.53
2022-10-31T22:01:33.087Z,13.50
2022-10-31T22:04:04.304Z,14.30
2022-10-31T22:06:31.902Z,12.53
2022-10-31T22:11:52.648Z,12.43
2022-10-31T22:14:20.914Z,14.40
2022-10-31T22:16:50.437Z,13.73
2022-10-31T22:19:20.171Z,13.03
2022-10-31T22:21:58.736Z,11.10
2022-10-31T22:24:31.391Z,10.87
2022-10-31T22:27:04.952Z,11.83
2022-10-31T22:29:37.837Z,13.07
2022-10-31T22:32:09.840Z,13.10
2022-10-31T22:34:40.020Z,12.53
2022-10-31T22:37:10.550Z,13.07
2022-10-31T22:42:23.010Z,12.50
2022-10-31T22:44:53.921Z,14.80
2022-10-31T22:47:23.287Z,14.60
2022-10-31T22:49:50.476Z,13.83
2022-10-31T22:52:20.523Z,14.17
2022-10-31T22:54:50.025Z,12.00
2022-10-31T22:57:20.723Z,13.63
2022-10-31T22:59:51.106Z,12.23
2022-10-31T23:02:21.592Z,11.53
2022-10-31T23:04:51.045Z,12.67
2022-10-31T23:07:23.203Z,11.77
2022-10-31T23:12:56.534Z,12.57
2022-10-31T23:15:34.802Z,14.83
2022-10-31T23:18:14.391Z,13.03
2022-10-31T23:20:55.655Z,14.50
2022-10-31T23:23:25.611Z,14.17
2022-10-31T23:26:14.869Z,14.23
2022-10-31T23:28:53.021Z,13.03
2022-10-31T23:31:23.464Z,12.80
2022-10-31T23:33:54.634Z,13.60
2022-10-31T23:36:27.746Z,13.50
2022-10-31T23:38:57.490Z,15.17
2022-10-31T23:44:19.494Z,13.73
2022-10-31T23:46:48.138Z,14.93
2022-10-31T23:49:18.566Z,12.30
2022-10-31T23:51:48.087Z,11.47
2022-10-31T23:54:18.532Z,12.27
2022-10-31T23:56:48.046Z,11.67
2022-10-31T23:59:18.616Z,11.37
